Time;durP1;ratioP1;P1;durP2;ratioP2;P2;SDS_P1;SDS_P2;PMS_P1;PMS_P2;Temp;Humidity;BMP_temperature;BMP_pressure;BME280_temperature;BME280_humidity;BME280_pressure;Samples;Min_cycle;Max_cycle;Signal;HPM_P1;HPM_P2
2021/09/03 00:00:17;;;;;;;49.67;25.23;;;;;;;11.18;100.00;101637.06;5046912;28;20527;-66
2021/09/03 00:02:45;;;;;;;44.72;25.13;;;;;;;11.40;100.00;101636.97;5030162;28;20127;-67
2021/09/03 00:05:14;;;;;;;50.42;25.98;;;;;;;11.57;100.00;101636.16;5045822;28;20132;-67
2021/09/03 00:07:42;;;;;;;40.35;24.67;;;;;;;11.64;100.00;101634.94;5041686;28;20136;-67
2021/09/03 00:10:10;;;;;;;36.88;23.73;;;;;;;11.48;100.00;101632.16;5041480;28;20143;-67
2021/09/03 00:12:38;;;;;;;35.72;22.70;;;;;;;11.35;100.00;101639.81;5033586;28;20139;-66
2021/09/03 00:15:08;;;;;;;38.95;23.45;;;;;;;11.25;100.00;101624.47;5046697;28;20132;-66
2021/09/03 00:17:36;;;;;;;45.97;24.95;;;;;;;11.18;100.00;101626.53;5030524;28;20049;-65
2021/09/03 00:20:08;;;;;;;39.90;24.42;;;;;;;11.24;100.00;101622.75;5043544;28;20376;-65
2021/09/03 00:22:35;;;;;;;44.33;24.73;;;;;;;11.37;100.00;101629.19;5047935;28;20041;-66
2021/09/03 00:25:05;;;;;;;41.30;23.35;;;;;;;11.47;100.00;101627.81;5027144;28;20045;-66
2021/09/03 00:27:34;;;;;;;54.00;24.80;;;;;;;11.27;100.00;101626.13;5030691;28;20128;-66
2021/09/03 00:30:06;;;;;;;49.47;25.77;;;;;;;11.18;100.00;101625.69;5040999;28;20578;-65
2021/09/03 00:32:34;;;;;;;52.47;25.73;;;;;;;11.24;100.00;101628.88;5019211;28;20048;-65
2021/09/03 00:35:01;;;;;;;43.15;24.73;;;;;;;11.31;100.00;101626.84;5008286;28;20095;-65
2021/09/03 00:37:29;;;;;;;45.03;25.58;;;;;;;11.34;100.00;101624.03;5029657;28;20120;-66
2021/09/03 00:39:56;;;;;;;43.80;25.90;;;;;;;11.22;100.00;101624.63;5042160;28;20216;-67
2021/09/03 00:42:24;;;;;;;39.38;23.90;;;;;;;11.16;100.00;101628.38;5028683;28;20150;-67
2021/09/03 00:44:51;;;;;;;48.78;25.25;;;;;;;11.16;100.00;101623.94;5027256;28;20049;-66
2021/09/03 00:47:18;;;;;;;43.15;25.63;;;;;;;11.20;100.00;101616.75;5029881;28;20076;-66
2021/09/03 00:49:45;;;;;;;45.53;25.80;;;;;;;11.53;100.00;101617.00;5026003;28;20037;-69
2021/09/03 00:52:13;;;;;;;44.15;24.35;;;;;;;11.62;100.00;101626.25;5030536;28;20063;-66
2021/09/03 00:54:40;;;;;;;44.85;24.00;;;;;;;11.61;100.00;101621.91;5022326;28;20049;-67
2021/09/03 00:57:08;;;;;;;41.67;24.73;;;;;;;11.49;100.00;101614.59;5040058;28;20056;-67
2021/09/03 00:59:36;;;;;;;45.00;24.17;;;;;;;11.52;100.00;101617.91;5041184;28;20057;-65
2021/09/03 01:02:03;;;;;;;41.20;23.15;;;;;;;11.58;100.00;101606.25;5046099;28;20148;-65
2021/09/03 01:04:31;;;;;;;41.22;24.38;;;;;;;11.76;100.00;101605.34;5044009;28;20150;-65
2021/09/03 01:06:58;;;;;;;46.25;24.92;;;;;;;11.63;100.00;101612.16;5029736;28;20151;-64
2021/09/03 01:09:25;;;;;;;44.00;25.75;;;;;;;11.45;100.00;101602.47;5029490;28;20056;-64
2021/09/03 01:11:53;;;;;;;45.08;24.45;;;;;;;11.39;100.00;101598.31;5026775;28;20045;-67
2021/09/03 01:14:23;;;;;;;43.92;25.02;;;;;;;11.40;100.00;101600.91;5042972;28;20067;-65
2021/09/03 01:16:50;;;;;;;48.75;27.08;;;;;;;11.32;100.00;101605.66;5040595;28;20363;-66
2021/09/03 01:19:17;;;;;;;44.75;24.05;;;;;;;11.32;100.00;101597.75;5048199;28;20130;-67
2021/09/03 01:21:49;;;;;;;48.47;26.35;;;;;;;11.18;100.00;101594.06;5028492;28;20060;-68
2021/09/03 01:24:17;;;;;;;50.75;25.83;;;;;;;11.20;100.00;101595.69;5037739;28;20180;-67
2021/09/03 01:26:44;;;;;;;44.90;26.65;;;;;;;11.26;100.00;101591.94;5046889;28;20054;-66
2021/09/03 01:29:12;;;;;;;49.58;26.67;;;;;;;11.41;100.00;101588.56;5042879;28;20140;-65
2021/09/03 01:31:40;;;;;;;45.67;25.75;;;;;;;11.37;100.00;101590.47;5011496;28;20487;-66
2021/09/03 01:34:07;;;;;;;49.35;26.38;;;;;;;11.28;100.00;101590.91;5028812;28;20134;-67
2021/09/03 01:36:34;;;;;;;50.80;27.83;;;;;;;11.31;100.00;101589.94;5025808;28;20080;-65
2021/09/03 01:39:03;;;;;;;51.08;26.98;;;;;;;11.19;100.00;101578.16;5045061;28;20078;-66
2021/09/03 01:41:30;;;;;;;54.15;28.73;;;;;;;11.23;100.00;101576.25;5032541;28;20442;-66
2021/09/03 01:43:58;;;;;;;47.92;27.17;;;;;;;11.14;100.00;101574.88;5031461;28;20077;-66
2021/09/03 01:46:25;;;;;;;50.25;27.58;;;;;;;11.07;100.00;101576.09;5047287;28;20063;-66
2021/09/03 01:48:52;;;;;;;45.42;26.02;;;;;;;11.07;100.00;101576.94;5050841;28;20081;-65
2021/09/03 01:51:19;;;;;;;50.60;28.95;;;;;;;11.20;100.00;101577.22;5043396;28;20506;-66
2021/09/03 01:53:47;;;;;;;45.25;26.00;;;;;;;11.39;100.00;101570.19;5055440;28;20472;-65
2021/09/03 01:56:14;;;;;;;48.92;26.95;;;;;;;11.54;100.00;101567.75;5034098;28;20190;-66
2021/09/03 01:58:41;;;;;;;52.22;26.92;;;;;;;11.27;100.00;101567.28;5036786;28;20578;-66
2021/09/03 02:01:08;;;;;;;51.22;26.52;;;;;;;11.12;100.00;101567.06;5052533;28;20072;-66
2021/09/03 02:03:36;;;;;;;49.35;27.17;;;;;;;11.09;100.00;101561.06;5029198;28;21036;-65
2021/09/03 02:06:03;;;;;;;50.03;27.02;;;;;;;11.24;100.00;101565.63;5024807;28;20404;-64
2021/09/03 02:08:31;;;;;;;46.45;27.35;;;;;;;11.36;100.00;101567.69;5048730;28;20037;-63
2021/09/03 02:10:58;;;;;;;46.72;26.58;;;;;;;11.27;100.00;101562.00;5051966;28;20040;-66
2021/09/03 02:13:25;;;;;;;49.08;26.60;;;;;;;11.24;100.00;101559.50;5013250;28;20055;-66
2021/09/03 02:15:52;;;;;;;54.15;29.15;;;;;;;11.11;100.00;101556.56;5052815;28;20120;-65
2021/09/03 02:18:20;;;;;;;57.88;29.67;;;;;;;11.03;100.00;101551.69;5051568;28;20064;-65
2021/09/03 02:20:47;;;;;;;56.20;28.58;;;;;;;11.15;100.00;101553.72;5015354;28;20041;-66
2021/09/03 02:23:14;;;;;;;53.70;28.92;;;;;;;11.03;100.00;101549.03;5041798;28;20057;-68
2021/09/03 02:25:41;;;;;;;59.28;29.88;;;;;;;11.00;100.00;101549.19;5035595;28;20147;-66
2021/09/03 02:28:09;;;;;;;47.15;28.27;;;;;;;10.90;100.00;101543.47;5052088;28;20414;-67
2021/09/03 02:30:36;;;;;;;54.63;30.25;;;;;;;10.95;100.00;101540.63;5031842;28;20452;-65
2021/09/03 02:33:04;;;;;;;57.97;30.02;;;;;;;10.87;100.00;101542.75;5048483;28;20049;-67
2021/09/03 02:35:31;;;;;;;54.95;29.80;;;;;;;10.84;100.00;101537.63;5051364;28;20140;-66
2021/09/03 02:37:58;;;;;;;61.55;32.40;;;;;;;10.81;100.00;101533.34;5048233;28;20132;-66
2021/09/03 02:40:26;;;;;;;57.88;30.75;;;;;;;10.80;100.00;101529.00;5048875;28;20076;-67
2021/09/03 02:42:54;;;;;;;58.03;30.08;;;;;;;10.84;100.00;101530.56;5051693;28;20483;-67
2021/09/03 02:45:22;;;;;;;55.25;30.13;;;;;;;10.88;100.00;101529.50;5021606;28;20144;-67
2021/09/03 02:47:50;;;;;;;50.10;28.88;;;;;;;11.19;100.00;101527.22;5029254;28;20048;-66
2021/09/03 02:50:17;;;;;;;61.17;31.42;;;;;;;11.29;100.00;101521.44;5045932;28;20151;-66
2021/09/03 02:52:44;;;;;;;51.92;27.88;;;;;;;11.22;100.00;101525.31;5034103;28;20049;-67
2021/09/03 02:55:11;;;;;;;54.03;28.70;;;;;;;11.31;100.00;101518.75;5051457;28;20054;-66
2021/09/03 02:57:38;;;;;;;44.38;26.38;;;;;;;11.25;100.00;101519.88;5013265;28;20045;-66
2021/09/03 03:00:07;;;;;;;46.20;27.55;;;;;;;11.29;100.00;101518.81;5012669;28;20037;-66
2021/09/03 03:02:34;;;;;;;48.70;27.70;;;;;;;11.07;100.00;101508.41;5046186;28;20053;-66
2021/09/03 03:05:01;;;;;;;53.78;30.05;;;;;;;11.05;100.00;101512.91;5028571;28;20037;-64
2021/09/03 03:07:29;;;;;;;50.58;28.10;;;;;;;10.98;100.00;101510.63;5049295;28;20151;-65
2021/09/03 03:09:56;;;;;;;54.45;29.27;;;;;;;11.12;100.00;101505.56;5043113;28;20050;-67
2021/09/03 03:12:24;;;;;;;47.47;28.85;;;;;;;11.26;100.00;101500.53;5025457;28;20127;-66
2021/09/03 03:14:51;;;;;;;58.97;30.50;;;;;;;11.08;100.00;101501.41;5024232;28;20426;-65
2021/09/03 03:17:18;;;;;;;45.53;25.65;;;;;;;11.12;100.00;101495.03;5027971;28;20059;-66
2021/09/03 03:19:45;;;;;;;52.80;27.27;;;;;;;11.27;100.00;101482.94;5042697;28;20045;-65
2021/09/03 03:22:13;;;;;;;46.20;27.35;;;;;;;11.27;100.00;101482.94;5026233;28;20079;-66
2021/09/03 03:24:40;;;;;;;48.45;28.15;;;;;;;11.31;100.00;101487.97;5038936;28;20139;-65
2021/09/03 03:27:07;;;;;;;54.45;28.85;;;;;;;11.31;100.00;101482.69;5040717;28;20053;-64
2021/09/03 03:29:34;;;;;;;52.63;27.73;;;;;;;11.32;100.00;101487.03;5027266;28;20168;-67
2021/09/03 03:32:02;;;;;;;52.22;27.35;;;;;;;11.33;100.00;101480.84;5047975;28;20056;-65
2021/09/03 03:34:29;;;;;;;53.25;28.85;;;;;;;11.20;100.00;101477.06;5040165;28;20061;-67
2021/09/03 03:36:56;;;;;;;50.42;27.30;;;;;;;11.29;100.00;101470.50;5049742;28;20236;-66
2021/09/03 03:39:24;;;;;;;53.28;29.92;;;;;;;11.44;100.00;101474.19;5030681;28;20073;-66
2021/09/03 03:41:52;;;;;;;54.03;30.85;;;;;;;11.58;100.00;101472.59;5050535;28;20045;-65
2021/09/03 03:44:20;;;;;;;52.90;29.05;;;;;;;11.52;100.00;101472.03;5044669;28;20102;-66
2021/09/03 03:46:47;;;;;;;51.85;30.00;;;;;;;11.65;100.00;101473.13;5048579;28;20044;-65
2021/09/03 03:49:14;;;;;;;52.67;28.10;;;;;;;11.56;100.00;101470.94;5028366;28;20048;-66
2021/09/03 03:51:41;;;;;;;46.25;27.10;;;;;;;11.69;100.00;101479.09;5028421;28;20053;-65
2021/09/03 03:54:09;;;;;;;59.15;25.33;;;;;;;11.65;100.00;101468.69;5050267;28;20143;-66
2021/09/03 03:56:36;;;;;;;54.58;29.50;;;;;;;11.65;100.00;101463.44;5030549;28;20050;-66
2021/09/03 03:59:03;;;;;;;56.05;29.30;;;;;;;11.43;100.00;101456.66;5047281;28;20060;-66
2021/09/03 04:01:30;;;;;;;52.92;28.10;;;;;;;11.44;100.00;101461.88;5046075;28;20132;-65
2021/09/03 04:03:58;;;;;;;43.75;25.63;;;;;;;11.54;100.00;101459.63;5053509;28;20068;-64
2021/09/03 04:06:25;;;;;;;46.08;24.65;;;;;;;11.52;100.00;101454.41;5046087;28;20051;-65
2021/09/03 04:08:54;;;;;;;47.15;27.55;;;;;;;11.59;100.00;101457.63;5048061;28;20415;-66
2021/09/03 04:11:22;;;;;;;43.20;25.25;;;;;;;11.64;100.00;101452.97;5029703;28;20072;-65
2021/09/03 04:13:49;;;;;;;46.70;24.77;;;;;;;11.59;100.00;101449.72;5046141;28;20619;-65
2021/09/03 04:16:16;;;;;;;48.03;27.00;;;;;;;11.51;100.00;101442.16;5058026;28;20068;-64
2021/09/03 04:18:43;;;;;;;48.85;29.20;;;;;;;11.37;100.00;101453.41;5063914;28;20064;-67
2021/09/03 04:21:11;;;;;;;54.10;27.17;;;;;;;11.52;100.00;101443.88;5029741;28;20095;-66
2021/09/03 04:23:38;;;;;;;50.33;27.13;;;;;;;11.56;100.00;101442.78;5029754;28;20053;-64
2021/09/03 04:26:05;;;;;;;46.47;26.83;;;;;;;11.58;100.00;101440.94;5031570;28;20045;-64
2021/09/03 04:28:32;;;;;;;44.92;25.38;;;;;;;11.68;100.00;101443.13;5039320;28;20416;-65
2021/09/03 04:30:59;;;;;;;40.75;23.35;;;;;;;11.68;100.00;101441.31;5035782;28;20048;-66
2021/09/03 04:33:26;;;;;;;42.85;25.55;;;;;;;11.70;100.00;101438.59;5037136;28;20143;-67
2021/09/03 04:35:54;;;;;;;47.70;25.60;;;;;;;11.53;100.00;101440.31;5028824;28;20083;-65
2021/09/03 04:38:22;;;;;;;46.08;24.75;;;;;;;11.46;100.00;101430.16;5035606;28;20148;-65
2021/09/03 04:40:49;;;;;;;48.70;27.90;;;;;;;11.49;100.00;101422.09;5026955;28;20577;-65
2021/09/03 04:43:16;;;;;;;46.97;26.58;;;;;;;11.46;100.00;101407.28;5042701;28;20135;-66
2021/09/03 04:45:43;;;;;;;41.40;24.30;;;;;;;11.58;100.00;101406.66;5044437;28;20059;-65
2021/09/03 04:48:10;;;;;;;56.63;28.25;;;;;;;11.67;100.00;101402.72;5043711;28;20056;-66
2021/09/03 04:50:38;;;;;;;49.17;25.58;;;;;;;11.71;100.00;101403.38;5001180;28;20148;-67
2021/09/03 04:53:05;;;;;;;48.85;25.75;;;;;;;11.72;100.00;101399.84;5028391;28;20122;-66
2021/09/03 04:55:32;;;;;;;40.85;24.77;;;;;;;11.78;100.00;101402.13;5026010;28;20107;-67
2021/09/03 04:58:00;;;;;;;50.28;27.00;;;;;;;11.89;100.00;101402.50;5038513;28;20075;-66
2021/09/03 05:00:27;;;;;;;46.35;26.92;;;;;;;11.94;100.00;101399.59;5036875;28;20419;-66
2021/09/03 05:02:54;;;;;;;39.13;22.02;;;;;;;12.03;100.00;101399.97;5030410;28;20036;-65
2021/09/03 05:05:22;;;;;;;45.83;25.55;;;;;;;12.06;100.00;101391.88;5027646;28;20424;-66
2021/09/03 05:07:49;;;;;;;41.78;23.20;;;;;;;12.15;100.00;101398.47;5031599;28;20148;-70
2021/09/03 05:10:16;;;;;;;41.35;23.52;;;;;;;12.27;100.00;101391.69;5039205;28;20082;-65
2021/09/03 05:12:43;;;;;;;36.35;22.77;;;;;;;12.42;100.00;101396.13;5048676;28;20045;-64
2021/09/03 05:15:13;;;;;;;40.63;23.70;;;;;;;12.47;100.00;101396.72;5027595;28;20063;-64
2021/09/03 05:17:42;;;;;;;36.88;20.77;;;;;;;12.60;100.00;101400.41;5049050;28;20049;-65
2021/09/03 05:20:11;;;;;;;40.80;20.45;;;;;;;13.04;100.00;101394.41;5046029;28;20512;-63
2021/09/03 05:22:38;;;;;;;34.28;19.17;;;;;;;13.47;100.00;101386.69;5037946;28;20173;-64
2021/09/03 05:25:08;;;;;;;29.67;16.48;;;;;;;13.63;100.00;101391.91;5043217;28;20057;-65
2021/09/03 05:27:38;;;;;;;35.95;18.80;;;;;;;13.61;100.00;101383.22;5047459;28;20041;-64
2021/09/03 05:30:07;;;;;;;29.67;18.60;;;;;;;13.64;100.00;101385.66;5028443;28;20051;-63
2021/09/03 05:32:35;;;;;;;33.05;18.10;;;;;;;13.73;100.00;101390.41;5021451;28;20104;-65
2021/09/03 05:35:05;;;;;;;29.85;17.35;;;;;;;13.82;100.00;101387.22;5029018;28;20188;-64
2021/09/03 05:37:34;;;;;;;32.75;19.75;;;;;;;13.96;100.00;101390.81;5038191;28;20061;-64
2021/09/03 05:40:02;;;;;;;26.05;16.80;;;;;;;14.02;100.00;101398.41;5034449;28;20062;-64
2021/09/03 05:42:29;;;;;;;29.13;17.40;;;;;;;14.12;100.00;101396.91;5028934;28;20120;-64
2021/09/03 05:44:56;;;;;;;34.60;18.17;;;;;;;14.28;100.00;101395.00;5046174;28;20139;-64
2021/09/03 05:47:23;;;;;;;29.20;16.48;;;;;;;14.39;100.00;101402.28;5048881;28;20057;-63
2021/09/03 05:49:51;;;;;;;33.30;17.58;;;;;;;14.66;100.00;101389.13;5045715;28;20040;-64
2021/09/03 05:52:18;;;;;;;27.73;16.65;;;;;;;14.76;100.00;101389.38;5044326;28;20522;-64
2021/09/03 05:54:45;;;;;;;29.50;17.60;;;;;;;14.98;100.00;101389.69;5048564;28;20479;-65
2021/09/03 05:57:13;;;;;;;29.88;16.98;;;;;;;15.06;100.00;101395.34;5045117;28;20139;-63
2021/09/03 05:59:40;;;;;;;27.52;17.33;;;;;;;15.33;100.00;101390.03;5042867;28;20063;-65
2021/09/03 06:02:07;;;;;;;33.08;16.40;;;;;;;15.47;100.00;101391.75;5036761;28;20059;-65
2021/09/03 06:04:35;;;;;;;28.80;17.15;;;;;;;15.52;100.00;101391.44;5048432;28;20155;-64
2021/09/03 06:07:02;;;;;;;27.90;17.30;;;;;;;15.65;100.00;101385.22;5046924;28;20040;-64
2021/09/03 06:09:29;;;;;;;29.25;17.13;;;;;;;16.15;100.00;101385.34;5023055;28;20136;-64
2021/09/03 06:11:57;;;;;;;26.60;16.48;;;;;;;16.36;96.93;101386.50;5046897;28;20140;-64
2021/09/03 06:14:25;;;;;;;27.80;17.60;;;;;;;15.82;98.22;101385.88;5025379;28;20045;-64
2021/09/03 06:16:52;;;;;;;30.33;17.85;;;;;;;15.84;98.12;101390.13;5054866;28;20137;-63
2021/09/03 06:19:20;;;;;;;29.02;16.83;;;;;;;16.21;95.79;101384.94;5044989;28;20052;-64
2021/09/03 06:21:48;;;;;;;32.20;18.85;;;;;;;17.09;89.33;101385.63;5029067;28;20072;-63
2021/09/03 06:24:28;;;;;;;26.80;17.48;;;;;;;18.46;81.90;101389.31;5045185;28;20044;-65
2021/09/03 06:27:00;;;;;;;25.10;14.52;;;;;;;20.74;69.07;101386.03;5032407;28;20511;-65
2021/09/03 06:29:38;;;;;;;28.42;14.30;;;;;;;22.49;61.87;101375.94;5025542;28;20068;-63
2021/09/03 06:32:06;;;;;;;22.40;14.23;;;;;;;23.36;57.42;101378.00;5043243;28;20116;-64
2021/09/03 06:34:34;;;;;;;28.30;12.48;;;;;;;22.48;58.65;101382.31;5031658;28;20063;-65
2021/09/03 06:37:02;;;;;;;22.42;12.27;;;;;;;23.45;55.62;101374.38;5029862;28;20033;-64
2021/09/03 06:39:29;;;;;;;27.25;12.52;;;;;;;25.29;50.54;101365.78;5039001;28;20063;-64
2021/09/03 06:41:57;;;;;;;24.33;11.73;;;;;;;26.54;46.83;101363.50;5030125;28;20052;-64
2021/09/03 06:44:24;;;;;;;15.10;11.98;;;;;;;26.94;45.38;101362.41;5037307;28;20148;-66
2021/09/03 06:46:51;;;;;;;19.45;11.52;;;;;;;26.95;45.27;101355.97;5028277;28;20045;-65
2021/09/03 06:49:18;;;;;;;15.85;11.60;;;;;;;27.39;43.26;101350.75;5024157;28;20106;-66
2021/09/03 06:51:46;;;;;;;17.30;11.30;;;;;;;27.76;41.89;101354.47;5026467;28;20053;-65
2021/09/03 06:54:13;;;;;;;19.27;10.55;;;;;;;28.98;39.96;101357.50;5042369;28;20140;-65
2021/09/03 06:56:40;;;;;;;21.27;9.88;;;;;;;28.47;40.51;101357.56;5042216;28;20065;-64
2021/09/03 06:59:07;;;;;;;20.95;11.57;;;;;;;27.22;43.41;101355.47;5025722;28;20375;-65
2021/09/03 07:01:35;;;;;;;22.27;12.23;;;;;;;26.75;43.74;101361.03;5027937;28;20095;-65
2021/09/03 07:04:02;;;;;;;16.58;10.30;;;;;;;29.04;39.92;101353.19;5026058;28;20132;-65
2021/09/03 07:06:30;;;;;;;16.88;10.88;;;;;;;28.00;40.56;101350.66;5047611;28;20049;-65
2021/09/03 07:08:57;;;;;;;16.15;11.27;;;;;;;28.11;40.79;101342.06;5053580;28;20084;-65
2021/09/03 07:11:25;;;;;;;14.00;10.48;;;;;;;30.11;37.62;101340.19;5051108;28;20509;-65
2021/09/03 07:13:52;;;;;;;14.05;10.65;;;;;;;30.17;36.78;101339.44;5019330;28;20515;-66
2021/09/03 07:16:19;;;;;;;19.63;11.20;;;;;;;30.36;36.42;101343.28;5036102;28;20052;-65
2021/09/03 07:18:47;;;;;;;18.50;10.05;;;;;;;30.91;35.36;101330.47;5043720;28;20140;-65
2021/09/03 07:21:14;;;;;;;29.13;11.52;;;;;;;29.33;37.83;101336.75;5022524;28;20142;-65
2021/09/03 07:23:41;;;;;;;15.82;10.25;;;;;;;30.04;37.27;101331.19;5038332;28;20076;-65
2021/09/03 07:26:08;;;;;;;17.15;9.48;;;;;;;29.93;37.01;101332.59;5043274;28;20126;-65
2021/09/03 07:28:35;;;;;;;18.30;9.98;;;;;;;30.06;36.78;101331.81;5028567;28;20049;-65
2021/09/03 07:31:03;;;;;;;17.10;10.45;;;;;;;29.18;38.04;101333.28;5042077;28;20529;-65
2021/09/03 07:33:30;;;;;;;14.88;9.75;;;;;;;30.03;36.68;101329.50;5045862;28;20236;-65
2021/09/03 07:35:57;;;;;;;17.98;10.60;;;;;;;30.35;35.64;101333.47;5023503;28;20049;-65
2021/09/03 07:38:27;;;;;;;17.95;9.38;;;;;;;28.45;39.07;101329.81;5038561;28;20370;-66
2021/09/03 07:40:54;;;;;;;17.02;9.98;;;;;;;28.79;38.57;101333.72;5047087;28;20059;-65
2021/09/03 07:43:21;;;;;;;14.18;10.40;;;;;;;30.24;36.36;101337.56;5055522;28;20143;-64
2021/09/03 07:45:49;;;;;;;16.02;9.82;;;;;;;30.31;35.89;101336.78;5043259;28;20053;-65
2021/09/03 07:48:16;;;;;;;17.48;10.10;;;;;;;30.12;36.46;101335.59;5026005;28;20049;-65
2021/09/03 07:50:44;;;;;;;18.33;9.30;;;;;;;31.16;34.55;101338.88;5040212;28;20053;-65
2021/09/03 07:53:11;;;;;;;16.67;10.05;;;;;;;30.65;34.67;101343.97;5043818;28;20140;-64
2021/09/03 07:55:44;;;;;;;17.67;9.77;;;;;;;28.46;37.99;101336.88;5042770;28;20051;-65
2021/09/03 07:58:13;;;;;;;15.40;9.90;;;;;;;29.20;37.71;101342.06;5040350;28;20585;-65
2021/09/03 08:00:40;;;;;;;16.35;9.93;;;;;;;30.33;35.44;101348.28;5008570;28;20144;-65
2021/09/03 08:03:07;;;;;;;19.52;9.90;;;;;;;30.02;35.72;101346.84;5021311;28;20259;-65
2021/09/03 08:05:35;;;;;;;20.45;10.70;;;;;;;29.39;36.64;101348.69;5024423;28;20041;-65
2021/09/03 08:08:04;;;;;;;17.08;9.73;;;;;;;29.70;36.44;101343.72;5044818;28;20077;-65
2021/09/03 08:10:33;;;;;;;23.33;9.70;;;;;;;30.67;35.33;101341.91;5010257;28;20188;-65
2021/09/03 08:13:01;;;;;;;19.27;9.43;;;;;;;30.63;35.27;101338.75;4995552;28;20048;-66
2021/09/03 08:15:29;;;;;;;17.27;9.80;;;;;;;30.69;34.76;101343.38;5021406;28;20053;-66
2021/09/03 08:17:56;;;;;;;21.90;9.65;;;;;;;30.21;35.74;101337.97;5023322;28;20079;-64
2021/09/03 08:20:24;;;;;;;20.10;9.95;;;;;;;29.41;36.99;101338.50;5034629;28;20185;-64
2021/09/03 08:22:52;;;;;;;18.20;9.85;;;;;;;27.94;39.86;101341.41;5012416;28;20144;-65
2021/09/03 08:25:19;;;;;;;15.90;10.00;;;;;;;28.82;38.18;101338.75;5026178;28;20148;-65
2021/09/03 08:27:48;;;;;;;22.42;11.63;;;;;;;27.19;41.06;101339.59;5045200;28;20072;-65
2021/09/03 08:30:17;;;;;;;16.00;10.13;;;;;;;27.76;40.44;101339.09;5043136;28;20253;-65
2021/09/03 08:32:44;;;;;;;23.38;11.13;;;;;;;28.10;39.73;101329.56;5026387;28;20081;-64
2021/09/03 08:35:11;;;;;;;17.83;10.55;;;;;;;26.85;42.22;101329.22;5027758;28;20055;-64
2021/09/03 08:37:40;;;;;;;15.15;10.25;;;;;;;27.03;41.83;101328.91;5026186;28;20053;-65
2021/09/03 08:40:10;;;;;;;19.98;11.18;;;;;;;25.94;44.41;101324.44;5030113;28;20087;-65
2021/09/03 08:42:39;;;;;;;17.42;11.02;;;;;;;24.94;47.15;101321.13;5047696;28;20052;-65
2021/09/03 08:45:09;;;;;;;16.58;10.02;;;;;;;23.67;51.33;101326.53;5024660;28;20518;-65
2021/09/03 08:47:41;;;;;;;19.77;11.15;;;;;;;22.61;54.98;101323.75;5042204;28;20410;-64
2021/09/03 08:50:10;;;;;;;23.30;11.45;;;;;;;22.44;56.07;101332.63;5043441;28;20049;-65
2021/09/03 08:52:41;;;;;;;19.45;10.48;;;;;;;22.14;57.25;101326.56;5025876;28;20072;-65
2021/09/03 08:55:08;;;;;;;21.58;12.70;;;;;;;22.14;57.78;101320.34;5038922;28;20102;-64
2021/09/03 08:57:36;;;;;;;21.38;12.27;;;;;;;21.56;60.39;101315.16;5020547;28;20089;-64
2021/09/03 09:00:10;;;;;;;26.65;12.55;;;;;;;20.75;61.93;101315.47;5033014;28;20063;-65
2021/09/03 09:02:59;;;;;;;20.38;11.90;;;;;;;21.19;61.26;101308.72;5025315;28;20064;-66
2021/09/03 09:06:03;;;;;;;19.65;11.02;;;;;;;20.14;65.01;101307.59;5045957;28;20069;-65
2021/09/03 09:08:32;;;;;;;20.33;11.13;;;;;;;20.85;63.65;101307.44;5021954;28;20069;-64
2021/09/03 09:11:26;;;;;;;26.17;12.57;;;;;;;20.97;62.92;101309.84;5009721;28;20151;-64
2021/09/03 09:14:00;;;;;;;19.95;11.63;;;;;;;20.78;63.08;101314.38;5015199;28;20251;-64
2021/09/03 09:16:30;;;;;;;25.73;13.75;;;;;;;20.52;64.23;101306.88;5019358;28;20049;-64
2021/09/03 09:19:03;;;;;;;16.25;10.93;;;;;;;20.68;64.66;101303.66;5040807;28;20090;-66
2021/09/03 09:21:39;;;;;;;24.08;11.30;;;;;;;20.89;63.15;101300.84;5016377;28;20092;-66
2021/09/03 09:24:11;;;;;;;19.67;10.43;;;;;;;21.10;62.85;101290.00;5020232;28;20603;-66
2021/09/03 09:26:50;;;;;;;19.00;10.30;;;;;;;20.99;62.50;101291.00;5025481;28;20071;-64
2021/09/03 09:29:26;;;;;;;30.05;12.80;;;;;;;21.01;62.18;101289.00;5039418;28;20145;-64
2021/09/03 09:31:55;;;;;;;18.02;10.15;;;;;;;20.99;61.91;101285.66;5049058;28;20055;-64
2021/09/03 09:34:24;;;;;;;16.42;10.85;;;;;;;20.72;63.18;101281.00;5049725;28;20052;-64
2021/09/03 09:36:53;;;;;;;21.75;11.18;;;;;;;20.62;63.46;101275.63;5011063;28;20056;-65
2021/09/03 09:39:22;;;;;;;25.10;11.02;;;;;;;20.75;63.34;101278.00;5011793;28;20698;-65
2021/09/03 09:42:00;;;;;;;31.42;11.95;;;;;;;20.74;63.82;101276.34;5047962;28;20509;-64
2021/09/03 09:44:29;;;;;;;16.40;10.63;;;;;;;20.90;63.29;101281.13;5024359;28;21209;-64
2021/09/03 09:47:07;;;;;;;18.13;10.02;;;;;;;21.01;62.47;101280.97;5005354;28;20081;-65
2021/09/03 09:49:35;;;;;;;23.65;10.52;;;;;;;21.02;63.17;101276.47;5010737;28;20135;-65
2021/09/03 09:52:04;;;;;;;24.65;11.57;;;;;;;20.82;63.86;101284.50;5031776;28;20469;-65
2021/09/03 09:54:31;;;;;;;28.67;10.95;;;;;;;20.98;63.43;101279.44;5029777;28;20076;-65
2021/09/03 09:56:59;;;;;;;35.85;12.88;;;;;;;20.91;63.88;101264.09;5034587;28;20132;-63
2021/09/03 09:59:28;;;;;;;20.15;10.88;;;;;;;21.31;63.75;101260.38;5055190;28;20052;-65
2021/09/03 10:01:58;;;;;;;41.72;11.98;;;;;;;21.28;63.59;101256.13;5054049;28;20412;-64
2021/09/03 10:04:27;;;;;;;24.77;11.38;;;;;;;21.34;62.72;101258.25;5043459;28;20045;-65
2021/09/03 10:06:57;;;;;;;23.45;10.23;;;;;;;21.77;61.66;101258.69;5030238;28;20059;-65
2021/09/03 10:09:26;;;;;;;22.30;10.82;;;;;;;21.70;62.24;101250.38;5041202;28;20248;-64
2021/09/03 10:11:57;;;;;;;13.13;9.48;;;;;;;21.67;62.48;101251.53;5035435;28;20045;-64
2021/09/03 10:14:29;;;;;;;19.58;10.82;;;;;;;21.68;62.52;101250.53;5040904;28;20053;-64
2021/09/03 10:16:57;;;;;;;19.60;10.52;;;;;;;21.59;62.27;101246.06;5025717;28;20147;-65
2021/09/03 10:19:37;;;;;;;29.67;11.40;;;;;;;21.48;62.75;101236.38;5026210;28;20061;-66
2021/09/03 10:22:06;;;;;;;16.73;9.48;;;;;;;21.51;62.01;101235.22;5030619;28;20470;-65
2021/09/03 10:24:35;;;;;;;18.73;10.88;;;;;;;21.57;63.05;101234.66;5043612;28;20215;-65
2021/09/03 10:27:05;;;;;;;16.52;10.30;;;;;;;21.59;62.48;101231.81;5049372;28;20052;-65
2021/09/03 10:29:37;;;;;;;27.73;10.02;;;;;;;21.72;61.76;101229.66;5024615;28;20386;-64
2021/09/03 10:34:44;;;;;;;20.15;9.13;;;;;;;21.92;60.69;101225.03;5028932;28;20547;-64
2021/09/03 10:37:14;;;;;;;23.35;10.38;;;;;;;22.02;60.88;101230.34;5044315;28;20482;-65
2021/09/03 10:39:55;;;;;;;21.40;8.98;;;;;;;21.47;61.10;101220.44;5041723;28;20049;-65
2021/09/03 10:42:45;;;;;;;39.38;10.48;;;;;;;21.46;60.14;101221.44;5043698;28;20056;-63
2021/09/03 10:45:26;;;;;;;15.95;8.63;;;;;;;21.54;60.18;101213.50;5016075;28;20053;-65
2021/09/03 10:48:14;;;;;;;20.73;8.88;;;;;;;21.73;59.57;101213.41;5050066;28;20072;-64
2021/09/03 10:50:51;;;;;;;16.30;9.18;;;;;;;21.83;59.80;101212.53;5043176;28;20116;-64
2021/09/03 10:53:38;;;;;;;16.67;8.27;;;;;;;21.80;59.52;101210.16;5040155;28;20053;-66
2021/09/03 10:56:05;;;;;;;17.27;9.10;;;;;;;21.49;60.62;101211.28;4991691;28;20120;-64
2021/09/03 10:59:03;;;;;;;16.75;9.63;;;;;;;21.23;62.01;101200.34;5020949;28;20095;-67
2021/09/03 11:01:35;;;;;;;24.02;9.02;;;;;;;21.35;60.87;101201.03;5022412;28;20508;-65
2021/09/03 11:04:13;;;;;;;18.85;9.80;;;;;;;21.62;61.10;101196.72;5028590;28;20082;-65
2021/09/03 11:06:55;;;;;;;19.08;9.15;;;;;;;21.77;60.92;101192.53;5039156;28;20565;-65
2021/09/03 11:09:24;;;;;;;17.52;9.65;;;;;;;21.88;60.19;101197.69;5044562;28;20561;-65
2021/09/03 11:11:58;;;;;;;12.57;8.45;;;;;;;21.92;60.25;101195.53;5042075;28;20232;-65
2021/09/03 11:14:27;;;;;;;23.60;8.95;;;;;;;21.89;59.28;101194.03;5025370;28;20076;-65
2021/09/03 11:17:05;;;;;;;20.80;9.40;;;;;;;21.76;59.70;101187.34;5024648;28;20077;-65